createdAt,value
2019-03-08T00:00:21.173Z,8.63
2019-03-08T00:02:48.803Z,8.63
2019-03-08T00:05:16.821Z,8.40
2019-03-08T00:07:44.467Z,8.22
2019-03-08T00:10:12.124Z,8.42
2019-03-08T00:12:39.754Z,8.62
2019-03-08T00:15:07.409Z,8.69
2019-03-08T00:17:35.052Z,8.52
2019-03-08T00:20:02.684Z,8.47
2019-03-08T00:22:30.331Z,8.36
2019-03-08T00:24:57.987Z,8.28
2019-03-08T00:27:25.639Z,8.36
2019-03-08T00:29:53.363Z,8.39
2019-03-08T00:32:21.018Z,8.25
2019-03-08T00:34:48.658Z,8.25
2019-03-08T00:37:16.473Z,8.19
2019-03-08T00:39:44.106Z,8.21
2019-03-08T00:42:11.734Z,8.20
2019-03-08T00:44:39.380Z,8.06
2019-03-08T00:47:07.032Z,8.06
2019-03-08T00:49:34.663Z,8.28
2019-03-08T00:52:02.321Z,8.18
2019-03-08T00:54:30.235Z,8.13
2019-03-08T00:56:57.870Z,8.15
2019-03-08T00:59:25.503Z,8.21
2019-03-08T01:01:53.142Z,8.12
2019-03-08T01:04:20.781Z,8.26
2019-03-08T01:06:48.424Z,8.26
2019-03-08T01:09:16.442Z,8.16
2019-03-08T01:11:45.340Z,8.43
2019-03-08T01:14:13.203Z,8.42
2019-03-08T01:16:40.842Z,8.34
2019-03-08T01:19:08.477Z,8.24
2019-03-08T01:21:36.116Z,8.08
2019-03-08T01:24:03.755Z,8.18
2019-03-08T01:26:31.533Z,8.17
2019-03-08T01:28:59.506Z,8.19
2019-03-08T01:31:27.187Z,8.13
2019-03-08T01:33:54.832Z,8.14
2019-03-08T01:36:22.473Z,8.14
2019-03-08T01:38:50.126Z,8.12
2019-03-08T01:41:18.042Z,8.16
2019-03-08T01:43:45.671Z,8.15
2019-03-08T01:46:13.314Z,8.18
2019-03-08T01:48:40.951Z,8.35
2019-03-08T01:51:08.590Z,8.05
2019-03-08T01:53:36.231Z,8.15
2019-03-08T01:56:03.870Z,8.03
2019-03-08T01:58:31.515Z,8.02
2019-03-08T02:00:59.189Z,8.24
2019-03-08T02:03:26.901Z,8.00
2019-03-08T02:05:54.545Z,7.94
2019-03-08T02:08:22.186Z,8.05
2019-03-08T02:10:49.829Z,8.15
2019-03-08T02:13:17.945Z,8.15
2019-03-08T02:15:45.649Z,8.04
2019-03-08T02:18:13.402Z,8.12
2019-03-08T02:20:41.287Z,8.46
2019-03-08T02:23:08.931Z,8.37
2019-03-08T02:25:36.588Z,8.47
2019-03-08T02:28:04.402Z,8.32
2019-03-08T02:30:32.415Z,8.81
2019-03-08T02:33:00.106Z,8.53
2019-03-08T02:35:27.743Z,8.59
2019-03-08T02:37:55.373Z,8.63
2019-03-08T02:40:23.019Z,8.76
2019-03-08T02:42:50.707Z,8.76
2019-03-08T02:45:18.675Z,8.88
2019-03-08T02:47:46.338Z,8.83
2019-03-08T02:50:14.002Z,8.88
2019-03-08T02:52:41.713Z,8.83
2019-03-08T02:55:09.366Z,8.69
2019-03-08T02:57:37.010Z,8.76
2019-03-08T03:00:04.935Z,8.63
2019-03-08T03:02:32.588Z,8.66
2019-03-08T03:05:00.388Z,8.73
2019-03-08T03:07:28.145Z,9.02
2019-03-08T03:09:55.793Z,8.90
2019-03-08T03:12:23.439Z,8.81
2019-03-08T03:14:51.199Z,8.74
2019-03-08T03:17:18.915Z,9.01
2019-03-08T03:19:46.678Z,8.91
2019-03-08T03:22:14.309Z,8.99
2019-03-08T03:24:41.952Z,8.93
2019-03-08T03:27:09.594Z,8.70
2019-03-08T03:29:37.238Z,8.60
2019-03-08T03:32:05.269Z,8.69
2019-03-08T03:34:32.911Z,8.55
2019-03-08T03:37:00.555Z,8.48
2019-03-08T03:39:28.181Z,8.52
2019-03-08T03:41:55.823Z,8.39
2019-03-08T03:44:23.478Z,8.50
2019-03-08T03:46:51.135Z,8.48
2019-03-08T03:49:18.864Z,8.28
2019-03-08T03:51:46.512Z,8.29
2019-03-08T03:54:14.149Z,8.38
2019-03-08T03:56:41.782Z,8.42
2019-03-08T03:59:09.415Z,8.46
2019-03-08T04:01:40.824Z,8.40
2019-03-08T04:04:08.468Z,8.22
2019-03-08T04:06:36.934Z,8.68
2019-03-08T04:09:04.736Z,8.51
2019-03-08T04:11:32.396Z,8.59
2019-03-08T04:14:00.030Z,8.42
2019-03-08T04:16:27.686Z,8.99
2019-03-08T04:18:55.516Z,8.67
2019-03-08T04:21:23.162Z,8.65
2019-03-08T04:23:50.794Z,8.57
2019-03-08T04:26:18.455Z,8.78
2019-03-08T04:28:46.115Z,8.58
2019-03-08T04:31:13.792Z,8.55
2019-03-08T04:33:41.443Z,8.58
2019-03-08T04:36:09.086Z,8.42
2019-03-08T04:38:36.726Z,8.42
2019-03-08T04:41:04.378Z,8.88
2019-03-08T04:43:32.050Z,8.62
2019-03-08T04:45:59.690Z,8.63
2019-03-08T04:48:27.416Z,8.80
2019-03-08T04:50:55.342Z,8.64
2019-03-08T04:53:22.981Z,8.92
2019-03-08T04:55:50.624Z,8.65
2019-03-08T04:58:18.267Z,8.83
2019-03-08T05:00:45.921Z,8.73
2019-03-08T05:03:13.577Z,8.76
2019-03-08T05:05:41.244Z,8.72
2019-03-08T05:08:08.902Z,8.81
2019-03-08T05:10:36.534Z,8.76
2019-03-08T05:13:04.188Z,8.61
2019-03-08T05:15:31.842Z,8.66
2019-03-08T05:17:59.574Z,8.99
2019-03-08T05:20:27.224Z,9.07
2019-03-08T05:22:55.156Z,8.70
2019-03-08T05:25:22.798Z,8.78
2019-03-08T05:27:50.427Z,8.92
2019-03-08T05:30:18.097Z,8.79
2019-03-08T05:32:45.752Z,8.93
2019-03-08T05:35:13.398Z,8.86
2019-03-08T05:37:41.037Z,8.62
2019-03-08T05:40:09.055Z,8.66
2019-03-08T05:42:36.703Z,8.77
2019-03-08T05:45:04.350Z,8.75
2019-03-08T05:47:31.983Z,8.64
2019-03-08T05:49:59.662Z,8.73
2019-03-08T05:52:27.310Z,8.65
2019-03-08T05:54:54.962Z,8.91
2019-03-08T05:57:22.617Z,8.83
2019-03-08T05:59:50.260Z,8.86
2019-03-08T06:02:17.899Z,8.67
2019-03-08T06:04:45.607Z,8.82
2019-03-08T06:07:13.265Z,8.83
2019-03-08T06:09:40.906Z,8.90
2019-03-08T06:12:08.831Z,8.79
2019-03-08T06:14:36.465Z,8.90
2019-03-08T06:17:04.093Z,8.88
2019-03-08T06:19:31.775Z,8.84
2019-03-08T06:21:59.431Z,8.78
2019-03-08T06:24:27.071Z,8.75
2019-03-08T06:26:55.203Z,8.88
2019-03-08T06:29:23.151Z,8.70
2019-03-08T06:31:50.808Z,8.64
2019-03-08T06:34:18.442Z,8.55
2019-03-08T06:36:46.094Z,8.49
2019-03-08T06:39:13.742Z,8.56
2019-03-08T06:41:41.376Z,8.48
2019-03-08T06:44:09.031Z,8.44
2019-03-08T06:46:37.046Z,8.60
2019-03-08T06:49:04.695Z,8.85
2019-03-08T06:51:32.339Z,8.64
2019-03-08T06:53:59.978Z,8.88
2019-03-08T06:56:27.610Z,8.98
2019-03-08T06:59:15.123Z,9.23
2019-03-08T07:01:43.229Z,9.12
2019-03-08T07:04:10.890Z,9.13
2019-03-08T07:06:38.552Z,9.12
2019-03-08T07:09:06.201Z,9.15
2019-03-08T07:11:33.890Z,9.12
2019-03-08T07:14:01.535Z,9.32
2019-03-08T07:16:29.167Z,9.37
2019-03-08T07:18:56.816Z,9.40
2019-03-08T07:21:29.938Z,9.80
2019-03-08T07:24:04.209Z,10.02
2019-03-08T07:26:40.660Z,10.12
2019-03-08T07:29:20.100Z,10.00
2019-03-08T07:32:00.275Z,9.95
2019-03-08T07:34:39.074Z,9.92
2019-03-08T07:37:21.282Z,9.90
2019-03-08T07:39:57.555Z,9.97
2019-03-08T07:42:35.563Z,10.05
2019-03-08T07:45:14.995Z,10.12
2019-03-08T07:47:52.061Z,10.13
2019-03-08T07:50:42.842Z,10.13
2019-03-08T07:53:21.488Z,10.14
2019-03-08T07:56:07.320Z,10.14
2019-03-08T07:58:47.648Z,10.11
2019-03-08T08:01:25.954Z,10.02
2019-03-08T08:04:01.312Z,10.03
2019-03-08T08:06:35.927Z,10.03
2019-03-08T08:09:12.828Z,10.01
2019-03-08T08:11:53.976Z,10.00
2019-03-08T08:14:27.797Z,10.02
2019-03-08T08:17:08.042Z,9.97
2019-03-08T08:19:40.870Z,9.95
2019-03-08T08:22:20.177Z,9.97
2019-03-08T08:24:58.916Z,10.00
2019-03-08T08:27:51.531Z,9.97
2019-03-08T08:30:32.462Z,9.89
2019-03-08T08:33:11.530Z,9.89
2019-03-08T08:35:44.525Z,9.95
2019-03-08T08:38:17.470Z,9.95
2019-03-08T08:40:53.782Z,10.01
2019-03-08T08:43:41.400Z,10.03
2019-03-08T08:46:14.373Z,10.08
2019-03-08T08:49:01.989Z,10.07
2019-03-08T08:51:41.213Z,10.06
2019-03-08T08:54:14.054Z,10.05
2019-03-08T08:57:02.795Z,10.13
2019-03-08T08:59:36.309Z,10.13
2019-03-08T09:02:12.872Z,10.26
2019-03-08T09:04:47.392Z,10.38
2019-03-08T09:07:23.970Z,10.34
2019-03-08T09:10:01.767Z,10.39
2019-03-08T09:12:48.871Z,10.29
2019-03-08T09:15:23.854Z,10.34
2019-03-08T09:18:00.288Z,10.38
2019-03-08T09:20:41.167Z,10.42
2019-03-08T09:23:17.416Z,10.48
2019-03-08T09:25:52.668Z,10.57
2019-03-08T09:28:32.428Z,10.54
2019-03-08T09:31:12.881Z,10.41
2019-03-08T09:33:49.744Z,10.46
2019-03-08T09:36:22.642Z,10.43
2019-03-08T09:39:06.560Z,10.41
2019-03-08T09:41:40.578Z,10.42
2019-03-08T09:44:22.502Z,10.50
2019-03-08T09:46:55.278Z,10.46
2019-03-08T09:49:35.906Z,10.32
2019-03-08T09:52:15.141Z,10.42
2019-03-08T09:54:48.523Z,10.51
2019-03-08T09:57:40.147Z,10.42
2019-03-08T10:02:54.703Z,10.54
2019-03-08T10:08:09.083Z,10.63
2019-03-08T10:13:23.009Z,10.41
2019-03-08T10:15:55.170Z,10.50
2019-03-08T10:18:30.917Z,10.49
2019-03-08T10:21:04.118Z,10.62
2019-03-08T10:23:37.065Z,10.63
2019-03-08T10:26:12.142Z,10.43
2019-03-08T10:28:48.499Z,10.48
2019-03-08T10:31:22.678Z,10.51
2019-03-08T10:33:55.585Z,10.46
2019-03-08T10:36:37.418Z,10.49
2019-03-08T10:39:12.309Z,10.58
2019-03-08T10:41:47.067Z,10.53
2019-03-08T10:46:48.936Z,10.56
2019-03-08T10:49:36.721Z,10.68
2019-03-08T10:52:17.390Z,10.65
2019-03-08T10:54:49.099Z,10.85
2019-03-08T10:57:29.876Z,10.73
2019-03-08T11:00:07.947Z,10.81
2019-03-08T11:02:48.250Z,10.80
2019-03-08T11:08:05.003Z,10.94
2019-03-08T11:10:39.999Z,10.84
2019-03-08T11:13:25.891Z,10.89
2019-03-08T11:16:01.548Z,10.76
2019-03-08T11:21:00.442Z,10.59
2019-03-08T11:23:37.007Z,10.54
2019-03-08T11:26:10.096Z,10.54
2019-03-08T11:28:45.142Z,10.43
2019-03-08T11:31:18.388Z,10.40
2019-03-08T11:33:58.227Z,10.34
2019-03-08T11:38:59.503Z,10.04
2019-03-08T11:41:32.014Z,10.05
2019-03-08T11:44:10.945Z,10.10
2019-03-08T11:46:57.655Z,10.12
2019-03-08T11:49:37.095Z,10.11
2019-03-08T11:52:13.120Z,10.13
2019-03-08T11:54:45.973Z,10.22
2019-03-08T11:57:22.719Z,10.23
2019-03-08T12:00:02.161Z,10.29
2019-03-08T12:02:43.736Z,10.29
2019-03-08T12:05:18.459Z,10.23
2019-03-08T12:07:53.400Z,10.33
2019-03-08T12:10:26.466Z,10.37
2019-03-08T12:13:13.211Z,10.26
2019-03-08T12:16:02.183Z,10.24
2019-03-08T12:18:37.791Z,9.99
2019-03-08T12:21:17.650Z,9.72
2019-03-08T12:23:52.385Z,9.85
2019-03-08T12:26:25.348Z,9.85
2019-03-08T12:29:00.606Z,9.94
2019-03-08T12:31:40.775Z,9.85
2019-03-08T12:34:18.286Z,10.00
2019-03-08T12:36:51.854Z,10.00
2019-03-08T12:39:38.543Z,10.18
2019-03-08T12:42:11.451Z,10.24
2019-03-08T12:44:49.369Z,10.13
2019-03-08T12:47:27.937Z,9.95
2019-03-08T12:50:04.645Z,9.93
2019-03-08T12:52:44.610Z,9.90
2019-03-08T12:55:17.481Z,9.90
2019-03-08T12:57:50.437Z,10.09
2019-03-08T13:00:29.602Z,10.14
2019-03-08T13:03:08.958Z,10.12
2019-03-08T13:05:53.325Z,9.83
2019-03-08T13:08:36.536Z,9.56
2019-03-08T13:11:04.191Z,9.69
2019-03-08T13:13:31.855Z,9.91
2019-03-08T13:15:59.506Z,10.07
2019-03-08T13:18:27.556Z,9.92
2019-03-08T13:20:55.194Z,10.01
2019-03-08T13:23:22.870Z,10.19
2019-03-08T13:25:50.568Z,10.05
2019-03-08T13:28:18.211Z,10.37
2019-03-08T13:30:45.850Z,10.39
2019-03-08T13:33:13.487Z,10.46
2019-03-08T13:35:41.139Z,10.45
2019-03-08T13:38:08.783Z,10.49
2019-03-08T13:40:36.427Z,10.33
2019-03-08T13:43:04.065Z,10.42
2019-03-08T13:45:31.728Z,10.56
2019-03-08T13:47:59.445Z,10.15
2019-03-08T13:50:27.402Z,10.08
2019-03-08T13:52:55.133Z,10.39
2019-03-08T13:55:22.820Z,10.44
2019-03-08T13:57:50.468Z,10.53
2019-03-08T14:00:18.124Z,10.42
2019-03-08T14:02:45.759Z,10.37
2019-03-08T14:05:13.394Z,10.26
2019-03-08T14:07:41.069Z,10.65
2019-03-08T14:10:08.725Z,10.47
2019-03-08T14:12:36.379Z,10.35
2019-03-08T14:15:04.027Z,10.21
2019-03-08T14:17:31.705Z,10.48
2019-03-08T14:19:59.359Z,10.17
2019-03-08T14:22:27.397Z,10.41
2019-03-08T14:24:55.151Z,10.24
2019-03-08T14:27:22.810Z,10.52
2019-03-08T14:29:50.459Z,10.64
2019-03-08T14:32:21.293Z,10.47
2019-03-08T14:34:49.597Z,10.47
2019-03-08T14:37:19.861Z,10.57
2019-03-08T14:39:47.634Z,10.44
2019-03-08T14:42:20.501Z,10.62
2019-03-08T14:44:53.612Z,10.47
2019-03-08T14:47:25.099Z,10.64
2019-03-08T14:49:55.353Z,10.45
2019-03-08T14:52:22.664Z,10.43
2019-03-08T14:54:50.485Z,10.38
2019-03-08T14:57:26.899Z,10.30
2019-03-08T14:59:49.314Z,10.47
2019-03-08T15:02:16.872Z,10.29
2019-03-08T15:04:44.507Z,10.40
2019-03-08T15:07:12.152Z,10.43
2019-03-08T15:09:39.827Z,10.31
2019-03-08T15:12:13.612Z,10.32
2019-03-08T15:14:36.829Z,9.29
2019-03-08T15:17:09.178Z,8.91
2019-03-08T15:19:36.225Z,8.61
2019-03-08T15:22:07.949Z,8.47
2019-03-08T15:24:38.487Z,8.38
2019-03-08T15:27:05.010Z,8.08
2019-03-08T15:29:32.939Z,7.47
2019-03-08T15:32:00.594Z,7.36
2019-03-08T15:34:28.231Z,7.09
2019-03-08T15:36:55.860Z,6.91
2019-03-08T15:39:23.494Z,6.58
2019-03-08T15:41:51.277Z,6.33
2019-03-08T15:44:19.203Z,6.24
2019-03-08T15:46:46.859Z,6.46
2019-03-08T15:49:14.520Z,6.49
2019-03-08T15:51:42.245Z,6.61
2019-03-08T15:54:09.956Z,6.86
2019-03-08T15:56:37.699Z,6.91
2019-03-08T15:59:05.755Z,7.08
2019-03-08T16:01:33.455Z,7.01
2019-03-08T16:04:01.095Z,6.92
2019-03-08T16:06:28.733Z,6.98
2019-03-08T16:08:56.370Z,6.93
2019-03-08T16:11:24.023Z,6.91
2019-03-08T16:13:52.047Z,6.90
2019-03-08T16:16:19.678Z,6.85
2019-03-08T16:18:48.244Z,6.98
2019-03-08T16:21:15.980Z,7.10
2019-03-08T16:23:43.610Z,6.91
2019-03-08T16:26:11.262Z,6.97
2019-03-08T16:28:38.897Z,7.04
2019-03-08T16:31:13.259Z,7.53
2019-03-08T16:33:44.016Z,7.23
2019-03-08T16:36:16.979Z,7.44
2019-03-08T16:38:50.807Z,7.21
2019-03-08T16:41:23.744Z,7.08
2019-03-08T16:44:00.886Z,7.37
2019-03-08T16:46:38.250Z,7.16
2019-03-08T16:49:18.183Z,7.07
2019-03-08T16:52:00.182Z,7.27
2019-03-08T16:54:35.453Z,7.26
2019-03-08T16:57:11.316Z,7.32
2019-03-08T16:59:51.368Z,7.40
2019-03-08T17:02:25.894Z,7.33
2019-03-08T17:05:00.416Z,7.20
2019-03-08T17:07:35.572Z,8.04
2019-03-08T17:10:10.968Z,7.35
2019-03-08T17:12:46.545Z,7.50
2019-03-08T17:15:27.536Z,7.33
2019-03-08T17:18:15.127Z,7.46
2019-03-08T17:20:50.921Z,7.30
2019-03-08T17:23:26.955Z,7.28
2019-03-08T17:26:03.445Z,7.28
2019-03-08T17:28:38.866Z,6.93
2019-03-08T17:31:12.679Z,7.04
2019-03-08T17:33:59.359Z,6.93
2019-03-08T17:36:34.952Z,6.81
2019-03-08T17:39:12.018Z,6.83
2019-03-08T17:41:53.103Z,6.79
2019-03-08T17:44:30.494Z,6.65
2019-03-08T17:47:06.665Z,6.47
2019-03-08T17:49:54.298Z,6.45
2019-03-08T17:52:31.267Z,6.45
2019-03-08T17:55:09.476Z,6.47
2019-03-08T17:57:57.086Z,6.61
2019-03-08T18:00:30.102Z,6.51
2019-03-08T18:03:07.682Z,6.55
2019-03-08T18:05:54.381Z,6.67
2019-03-08T18:08:28.182Z,6.71
2019-03-08T18:11:01.320Z,6.62
2019-03-08T18:13:36.738Z,6.51
2019-03-08T18:16:09.707Z,6.66
2019-03-08T18:18:42.728Z,6.54
2019-03-08T18:21:23.595Z,6.54
2019-03-08T18:24:00.259Z,6.63
2019-03-08T18:26:36.459Z,6.67
2019-03-08T18:29:15.140Z,6.64
2019-03-08T18:32:05.664Z,6.51
2019-03-08T18:34:43.067Z,6.54
2019-03-08T18:37:23.391Z,6.49
2019-03-08T18:40:09.493Z,6.60
2019-03-08T18:42:52.418Z,7.52
2019-03-08T18:45:41.035Z,7.61
2019-03-08T18:48:17.019Z,8.11
2019-03-08T18:51:06.763Z,8.08
2019-03-08T18:53:41.837Z,7.46
2019-03-08T18:56:19.046Z,8.18
2019-03-08T18:58:53.677Z,7.99
2019-03-08T19:01:45.488Z,7.81
2019-03-08T19:04:32.166Z,7.71
2019-03-08T19:07:09.067Z,6.97
2019-03-08T19:09:45.526Z,6.68
2019-03-08T19:12:32.215Z,6.70
2019-03-08T19:15:16.874Z,7.41
2019-03-08T19:17:52.245Z,6.86
2019-03-08T19:20:41.902Z,6.91
2019-03-08T19:23:14.403Z,6.82
2019-03-08T19:25:56.709Z,6.82
2019-03-08T19:28:34.923Z,7.14
2019-03-08T19:31:11.995Z,7.72
2019-03-08T19:33:51.550Z,7.93
2019-03-08T19:36:38.241Z,7.48
2019-03-08T19:39:24.933Z,6.98
2019-03-08T19:42:02.842Z,7.17
2019-03-08T19:44:41.266Z,7.54
2019-03-08T19:47:15.911Z,7.52
2019-03-08T19:50:02.590Z,6.95
2019-03-08T19:52:37.746Z,7.31
2019-03-08T19:55:12.277Z,7.32
2019-03-08T19:57:54.241Z,7.12
2019-03-08T20:00:28.887Z,7.48
2019-03-08T20:03:01.734Z,7.51
2019-03-08T20:05:34.791Z,7.17
2019-03-08T20:08:16.455Z,7.18
2019-03-08T20:10:53.955Z,7.33
2019-03-08T20:13:30.527Z,7.55
2019-03-08T20:16:17.236Z,7.22
2019-03-08T20:18:54.618Z,6.95
2019-03-08T20:21:29.963Z,7.03
2019-03-08T20:24:04.178Z,7.18
2019-03-08T20:26:41.879Z,6.65
2019-03-08T20:29:16.625Z,6.31
2019-03-08T20:31:49.395Z,6.40
2019-03-08T20:34:25.049Z,6.39
2019-03-08T20:37:05.510Z,6.37
2019-03-08T20:39:42.482Z,6.60
2019-03-08T20:42:18.793Z,6.41
2019-03-08T20:44:51.110Z,6.33
2019-03-08T20:47:23.907Z,6.48
2019-03-08T20:49:51.564Z,5.98
2019-03-08T20:52:19.496Z,5.82
2019-03-08T20:54:47.158Z,5.91
2019-03-08T20:57:14.811Z,5.88
2019-03-08T20:59:42.454Z,5.74
2019-03-08T21:02:10.102Z,5.79
2019-03-08T21:04:37.740Z,5.55
2019-03-08T21:07:05.665Z,5.58
2019-03-08T21:09:33.421Z,5.41
2019-03-08T21:12:01.063Z,5.47
2019-03-08T21:14:28.699Z,5.52
2019-03-08T21:16:56.344Z,5.76
2019-03-08T21:19:23.995Z,5.88
2019-03-08T21:21:51.811Z,5.78
2019-03-08T21:24:19.461Z,5.89
2019-03-08T21:26:47.146Z,5.93
2019-03-08T21:29:14.796Z,5.91
2019-03-08T21:31:42.431Z,5.94
2019-03-08T21:34:10.070Z,6.01
2019-03-08T21:36:37.908Z,5.75
2019-03-08T21:39:05.570Z,5.57
2019-03-08T21:41:33.215Z,5.91
2019-03-08T21:44:00.936Z,5.82
2019-03-08T21:46:28.592Z,5.72
2019-03-08T21:48:56.240Z,5.68
2019-03-08T21:51:23.880Z,5.62
2019-03-08T21:53:51.522Z,5.54
2019-03-08T21:56:19.278Z,5.37
2019-03-08T21:58:47.120Z,5.52
2019-03-08T22:01:14.780Z,5.79
2019-03-08T22:03:44.111Z,5.72
2019-03-08T22:06:11.743Z,5.72
2019-03-08T22:08:46.308Z,5.95
2019-03-08T22:11:15.352Z,5.86
2019-03-08T22:13:43.005Z,6.00
2019-03-08T22:16:10.766Z,6.15
2019-03-08T22:18:38.413Z,6.23
2019-03-08T22:21:06.140Z,6.23
2019-03-08T22:23:33.786Z,6.17
2019-03-08T22:26:01.428Z,6.32
2019-03-08T22:28:29.080Z,6.35
2019-03-08T22:30:56.754Z,6.31
2019-03-08T22:33:24.411Z,6.37
2019-03-08T22:35:52.062Z,6.51
2019-03-08T22:38:19.711Z,6.47
2019-03-08T22:40:47.352Z,6.48
2019-03-08T22:43:14.997Z,6.51
2019-03-08T22:45:42.629Z,6.51
2019-03-08T22:48:10.291Z,6.49
2019-03-08T22:50:37.938Z,6.38
2019-03-08T22:53:05.577Z,6.50
2019-03-08T22:55:33.222Z,6.53
2019-03-08T22:58:00.868Z,6.41
2019-03-08T23:00:30.179Z,6.39
2019-03-08T23:02:57.819Z,6.40
2019-03-08T23:05:25.459Z,6.36
2019-03-08T23:07:53.108Z,6.36
2019-03-08T23:10:20.759Z,6.48
2019-03-08T23:12:48.592Z,6.42
2019-03-08T23:15:16.524Z,6.58
2019-03-08T23:17:44.191Z,6.53
2019-03-08T23:20:11.826Z,6.32
2019-03-08T23:22:39.480Z,6.25
2019-03-08T23:25:07.166Z,6.30
2019-03-08T23:27:39.960Z,6.31
2019-03-08T23:30:16.023Z,6.32
2019-03-08T23:32:47.598Z,6.38
2019-03-08T23:35:15.238Z,6.39
2019-03-08T23:37:42.871Z,6.53
2019-03-08T23:40:10.796Z,6.47
2019-03-08T23:42:38.425Z,6.49
2019-03-08T23:45:06.069Z,6.40
2019-03-08T23:47:33.731Z,6.59
2019-03-08T23:50:01.374Z,6.55
2019-03-08T23:52:29.015Z,6.54
2019-03-08T23:54:56.880Z,6.44
2019-03-08T23:57:24.557Z,6.57
2019-03-08T23:59:52.206Z,6.43
